Yahata Maru — JL6477 — position and weather

sailwx.info

Track history (hours):
 
Tides and Currents Weather Stations Pressure Air Temp Water Temp Dewpoint Dewpoint Depression Visibility Wind Speed Wind Dir Waves Ship Positions

Yahata Maru

Last reported at 2016-Aug-25 04:33 UTC. Time now 2016-Aug-26 04:59 UTC.
Position N 35°02' E 139°31'.

Length 149 m; draft 4.7 m.

Type: Other ship. MMSI: 431400594.

Date/timePositionNaut miles runAvg speedWind from/ knotsBaromVisibWave heightAir tempDewpointWater temp
2016-Aug-25 04:33N 35°02' E 139°31'10 9.1
2016-Aug-25 03:29N 35°07' E 139°41'9 9.2
2016-Aug-25 02:34N 35°14' E 139°47'10 9.9
2016-Aug-25 01:34N 35°23' E 139°42'5 4.6
2016-Aug-25 00:31N 35°28' E 139°43'0 0.0
2016-Aug-24 23:31N 35°28' E 139°43'0 0.0
2016-Aug-24 22:31N 35°28' E 139°43'0 0.0
2016-Aug-24 21:31N 35°28' E 139°43'0 0.0
2016-Aug-24 20:31N 35°28' E 139°43'0 0.0
2016-Aug-24 19:31N 35°28' E 139°43'0 0.1
2016-Aug-24 18:34N 35°28' E 139°43'6 6.2
2016-Aug-24 17:34N 35°29' E 139°50'10 9.7
2016-Aug-24 16:34N 35°33' E 140°00'5 5.2
2016-Aug-24 15:34N 35°33' E 140°07'0 0.0
2016-Aug-24 14:34N 35°33' E 140°07'0 0.0
2016-Aug-24 13:33N 35°33' E 140°07'0 0.0
2016-Aug-24 12:34N 35°33' E 140°07'0 0.0
2016-Aug-24 11:34N 35°33' E 140°07'0 0.0
2016-Aug-24 10:34N 35°33' E 140°07'0 0.0
2016-Aug-24 09:33N 35°33' E 140°07'0 0.0
2016-Aug-24 08:33N 35°33' E 140°07'0 0.0
2016-Aug-24 07:33N 35°33' E 140°07'0 0.0
2016-Aug-24 06:33N 35°33' E 140°07'0 0.0
2016-Aug-24 04:33N 35°33' E 140°07'6 6.1
2016-Aug-24 03:34N 35°33' E 139°59'9 9.3
2016-Aug-24 02:34N 35°27' E 139°50'9 8.9
2016-Aug-24 01:34N 35°23' E 139°40'2 1.6
2016-Aug-24 00:33N 35°23' E 139°38'0 0.0
2016-Aug-23 23:33N 35°23' E 139°38'0 0.1
2016-Aug-23 22:33N 35°23' E 139°38'5 4.6
2016-Aug-23 21:33N 35°22' E 139°44'0 0.0
2016-Aug-23 20:33N 35°22' E 139°44'0 0.0
2016-Aug-23 19:33N 35°22' E 139°44'0 0.0
2016-Aug-23 18:33N 35°22' E 139°44'5 5.2
2016-Aug-23 17:33N 35°17' E 139°46'8 8.2
2016-Aug-23 16:33N 35°09' E 139°45'18 9.2
2016-Aug-23 14:33N 34°56' E 139°28'  
2016-Aug-15 20:33N 34°36' E 134°53'9 8.9
2016-Aug-15 19:33N 34°36' E 135°04'10 9.6
2016-Aug-15 18:33N 34°37' E 135°15'7 7.2
2016-Aug-15 17:33N 34°43' E 135°21'0 0.1
2016-Aug-15 16:33N 34°43' E 135°21'0 0.0
2016-Aug-15 15:27N 34°43' E 135°21'0 0.0
2016-Aug-15 14:21N 34°43' E 135°21'0 0.0
2016-Aug-15 13:33N 34°43' E 135°21'0 0.0
2016-Aug-15 12:33N 34°43' E 135°21'0 0.0
2016-Aug-15 11:21N 34°43' E 135°21'0 0.0
2016-Aug-15 10:33N 34°43' E 135°21'0 0.0
2016-Aug-15 09:09N 34°43' E 135°21'0 0.0
2016-Aug-15 08:33N 34°43' E 135°21'2 1.9
2016-Aug-15 07:32N 34°41' E 135°20'5 4.9
2016-Aug-15 06:33N 34°37' E 135°18'18 9.2
2016-Aug-15 04:33N 34°22' E 135°04'  
Track history (hours):
 
Tides and Currents Weather Stations Pressure Air Temp Water Temp Dewpoint Dewpoint Depression Visibility Wind Speed Wind Dir Waves Ship Positions

Yahata Maru

Last reported at 2016-Aug-25 04:33 UTC. Time now 2016-Aug-26 04:59 UTC.
Position N 35°02' E 139°31'.

Length 149 m; draft 4.7 m.

Type: Other ship. MMSI: 431400594.

Date/timePositionNaut miles runAvg speedWind from/ knotsBaromVisibWave heightAir tempDewpointWater temp
2016-Aug-25 04:33N 35°02' E 139°31'10 9.1
2016-Aug-25 03:29N 35°07' E 139°41'9 9.2
2016-Aug-25 02:34N 35°14' E 139°47'10 9.9
2016-Aug-25 01:34N 35°23' E 139°42'5 4.6
2016-Aug-25 00:31N 35°28' E 139°43'0 0.0
2016-Aug-24 23:31N 35°28' E 139°43'0 0.0
2016-Aug-24 22:31N 35°28' E 139°43'0 0.0
2016-Aug-24 21:31N 35°28' E 139°43'0 0.0
2016-Aug-24 20:31N 35°28' E 139°43'0 0.0
2016-Aug-24 19:31N 35°28' E 139°43'0 0.1
2016-Aug-24 18:34N 35°28' E 139°43'6 6.2
2016-Aug-24 17:34N 35°29' E 139°50'10 9.7
2016-Aug-24 16:34N 35°33' E 140°00'5 5.2
2016-Aug-24 15:34N 35°33' E 140°07'0 0.0
2016-Aug-24 14:34N 35°33' E 140°07'0 0.0
2016-Aug-24 13:33N 35°33' E 140°07'0 0.0
2016-Aug-24 12:34N 35°33' E 140°07'0 0.0
2016-Aug-24 11:34N 35°33' E 140°07'0 0.0
2016-Aug-24 10:34N 35°33' E 140°07'0 0.0
2016-Aug-24 09:33N 35°33' E 140°07'0 0.0
2016-Aug-24 08:33N 35°33' E 140°07'0 0.0
2016-Aug-24 07:33N 35°33' E 140°07'0 0.0
2016-Aug-24 06:33N 35°33' E 140°07'0 0.0
2016-Aug-24 04:33N 35°33' E 140°07'6 6.1
2016-Aug-24 03:34N 35°33' E 139°59'9 9.3
2016-Aug-24 02:34N 35°27' E 139°50'9 8.9
2016-Aug-24 01:34N 35°23' E 139°40'2 1.6
2016-Aug-24 00:33N 35°23' E 139°38'0 0.0
2016-Aug-23 23:33N 35°23' E 139°38'0 0.1
2016-Aug-23 22:33N 35°23' E 139°38'5 4.6
2016-Aug-23 21:33N 35°22' E 139°44'0 0.0
2016-Aug-23 20:33N 35°22' E 139°44'0 0.0
2016-Aug-23 19:33N 35°22' E 139°44'0 0.0
2016-Aug-23 18:33N 35°22' E 139°44'5 5.2
2016-Aug-23 17:33N 35°17' E 139°46'8 8.2
2016-Aug-23 16:33N 35°09' E 139°45'18 9.2
2016-Aug-23 14:33N 34°56' E 139°28'  
2016-Aug-15 20:33N 34°36' E 134°53'9 8.9
2016-Aug-15 19:33N 34°36' E 135°04'10 9.6
2016-Aug-15 18:33N 34°37' E 135°15'7 7.2
2016-Aug-15 17:33N 34°43' E 135°21'0 0.1
2016-Aug-15 16:33N 34°43' E 135°21'0 0.0
2016-Aug-15 15:27N 34°43' E 135°21'0 0.0
2016-Aug-15 14:21N 34°43' E 135°21'0 0.0
2016-Aug-15 13:33N 34°43' E 135°21'0 0.0
2016-Aug-15 12:33N 34°43' E 135°21'0 0.0
2016-Aug-15 11:21N 34°43' E 135°21'0 0.0
2016-Aug-15 10:33N 34°43' E 135°21'0 0.0
2016-Aug-15 09:09N 34°43' E 135°21'0 0.0
2016-Aug-15 08:33N 34°43' E 135°21'2 1.9
2016-Aug-15 07:32N 34°41' E 135°20'5 4.9
2016-Aug-15 06:33N 34°37' E 135°18'18 9.2
2016-Aug-15 04:33N 34°22' E 135°04'  

Dump ship's entire track history